createdAt,value
2019-02-20T00:00:02.267Z,78.98
2019-02-20T00:02:30.781Z,79.03
2019-02-20T00:04:59.234Z,78.70
2019-02-20T00:07:27.705Z,78.62
2019-02-20T00:09:56.179Z,78.73
2019-02-20T00:12:24.667Z,78.67
2019-02-20T00:14:54.636Z,78.79
2019-02-20T00:17:23.110Z,78.94
2019-02-20T00:19:51.582Z,78.76
2019-02-20T00:22:20.069Z,78.89
2019-02-20T00:24:48.620Z,78.83
2019-02-20T00:27:17.091Z,78.98
2019-02-20T00:29:45.553Z,78.99
2019-02-20T00:32:14.048Z,78.79
2019-02-20T00:34:42.522Z,78.93
2019-02-20T00:37:11.604Z,79.17
2019-02-20T00:39:40.082Z,78.75
2019-02-20T00:42:08.555Z,79.24
2019-02-20T00:44:44.391Z,79.31
2019-02-20T00:47:14.506Z,79.37
2019-02-20T00:49:43.347Z,79.32
2019-02-20T00:52:13.457Z,79.16
2019-02-20T00:54:42.014Z,79.09
2019-02-20T00:57:10.492Z,79.41
2019-02-20T00:59:39.064Z,79.28
2019-02-20T01:02:07.554Z,79.35
2019-02-20T01:04:36.038Z,79.70
2019-02-20T01:07:05.036Z,79.61
2019-02-20T01:09:33.512Z,79.60
2019-02-20T01:12:01.990Z,79.51
2019-02-20T01:14:30.515Z,79.38
2019-02-20T01:16:59.035Z,79.54
2019-02-20T01:19:27.518Z,79.62
2019-02-20T01:21:55.987Z,79.42
2019-02-20T01:24:24.454Z,79.15
2019-02-20T01:26:53.113Z,79.33
2019-02-20T01:29:21.591Z,79.32
2019-02-20T01:31:50.086Z,79.27
2019-02-20T01:34:18.564Z,79.21
2019-02-20T01:36:47.039Z,79.16
2019-02-20T01:39:15.522Z,79.20
2019-02-20T01:41:43.994Z,79.34
2019-02-20T01:44:12.461Z,79.25
2019-02-20T01:46:41.000Z,79.21
2019-02-20T01:49:09.476Z,79.21
2019-02-20T01:51:37.952Z,79.02
2019-02-20T01:54:06.452Z,79.12
2019-02-20T01:56:34.938Z,78.96
2019-02-20T01:59:03.404Z,79.14
2019-02-20T02:01:31.888Z,79.28
2019-02-20T02:04:01.160Z,79.26
2019-02-20T02:06:29.786Z,78.93
2019-02-20T02:08:59.657Z,78.88
2019-02-20T02:11:28.289Z,78.97
2019-02-20T02:13:56.771Z,79.01
2019-02-20T02:16:25.252Z,78.88
2019-02-20T02:18:53.744Z,78.89
2019-02-20T02:21:22.293Z,78.91
2019-02-20T02:23:50.803Z,78.82
2019-02-20T02:26:19.283Z,79.18
2019-02-20T02:28:47.745Z,79.33
2019-02-20T02:31:16.386Z,79.37
2019-02-20T02:33:44.860Z,79.61
2019-02-20T02:36:13.386Z,79.37
2019-02-20T02:38:41.873Z,79.61
2019-02-20T02:41:10.330Z,79.74
2019-02-20T02:43:38.812Z,79.82
2019-02-20T02:46:07.313Z,79.79
2019-02-20T02:48:35.773Z,79.90
2019-02-20T02:51:05.861Z,80.01
2019-02-20T02:53:34.343Z,80.00
2019-02-20T02:56:02.871Z,80.03
2019-02-20T02:58:31.432Z,79.66
2019-02-20T03:00:59.975Z,79.56
2019-02-20T03:03:28.553Z,79.49
2019-02-20T03:05:57.082Z,79.27
2019-02-20T03:08:25.680Z,79.23
2019-02-20T03:10:55.659Z,79.20
2019-02-20T03:13:24.129Z,79.09
2019-02-20T03:15:52.639Z,79.10
2019-02-20T03:18:21.095Z,78.88
2019-02-20T03:20:49.574Z,78.84
2019-02-20T03:23:18.144Z,78.79
2019-02-20T03:25:46.602Z,78.78
2019-02-20T03:28:15.162Z,79.04
2019-02-20T03:30:43.805Z,78.96
2019-02-20T03:33:12.516Z,78.85
2019-02-20T03:35:41.005Z,78.78
2019-02-20T03:38:09.496Z,78.82
2019-02-20T03:40:37.963Z,78.68
2019-02-20T03:43:06.561Z,78.68
2019-02-20T03:45:35.037Z,78.37
2019-02-20T03:48:03.574Z,78.56
2019-02-20T03:50:32.125Z,78.25
2019-02-20T03:53:00.600Z,78.26
2019-02-20T03:55:29.715Z,78.16
2019-02-20T03:57:58.244Z,78.40
2019-02-20T04:00:26.758Z,78.21
2019-02-20T04:02:55.222Z,78.39
2019-02-20T04:05:23.769Z,78.36
2019-02-20T04:07:52.239Z,78.45
2019-02-20T04:10:20.879Z,78.27
2019-02-20T04:12:49.378Z,78.25
2019-02-20T04:15:18.021Z,78.27
2019-02-20T04:17:46.493Z,78.26
2019-02-20T04:20:15.048Z,78.11
2019-02-20T04:22:43.552Z,77.92
2019-02-20T04:25:12.129Z,78.16
2019-02-20T04:27:40.664Z,78.10
2019-02-20T04:30:10.182Z,77.99
2019-02-20T04:32:38.664Z,78.30
2019-02-20T04:35:07.318Z,78.48
2019-02-20T04:37:35.802Z,78.45
2019-02-20T04:40:05.948Z,78.46
2019-02-20T04:42:34.589Z,78.66
2019-02-20T04:45:03.226Z,78.58
2019-02-20T04:47:33.125Z,78.46
2019-02-20T04:50:01.633Z,78.57
2019-02-20T04:52:30.109Z,78.54
2019-02-20T04:54:58.932Z,78.49
2019-02-20T04:57:27.485Z,78.46
2019-02-20T04:59:55.965Z,78.30
2019-02-20T05:02:24.512Z,78.16
2019-02-20T05:04:52.972Z,78.34
2019-02-20T05:07:21.478Z,78.51
2019-02-20T05:09:50.311Z,78.23
2019-02-20T05:12:18.853Z,78.26
2019-02-20T05:14:47.354Z,78.36
2019-02-20T05:17:15.819Z,78.24
2019-02-20T05:19:44.299Z,78.15
2019-02-20T05:22:12.807Z,78.35
2019-02-20T05:24:41.290Z,78.39
2019-02-20T05:27:29.093Z,78.42
2019-02-20T05:29:57.558Z,78.38
2019-02-20T05:32:26.053Z,78.40
2019-02-20T05:34:54.525Z,78.46
2019-02-20T05:37:23.003Z,78.63
2019-02-20T05:39:51.470Z,78.39
2019-02-20T05:42:19.943Z,78.33
2019-02-20T05:44:48.406Z,78.40
2019-02-20T05:47:16.865Z,78.41
2019-02-20T05:49:45.344Z,78.51
2019-02-20T05:52:13.841Z,78.32
2019-02-20T05:54:42.332Z,78.44
2019-02-20T05:57:10.847Z,78.69
2019-02-20T05:59:39.351Z,78.64
2019-02-20T06:02:07.848Z,78.48
2019-02-20T06:04:36.358Z,78.63
2019-02-20T06:07:04.943Z,78.39
2019-02-20T06:09:33.402Z,78.57
2019-02-20T06:12:01.880Z,78.68
2019-02-20T06:14:30.469Z,78.86
2019-02-20T06:16:58.933Z,78.85
2019-02-20T06:19:27.398Z,78.99
2019-02-20T06:21:55.958Z,79.25
2019-02-20T06:24:24.438Z,78.96
2019-02-20T06:26:53.123Z,78.99
2019-02-20T06:29:24.733Z,78.92
2019-02-20T06:31:53.192Z,78.73
2019-02-20T06:34:21.681Z,78.87
2019-02-20T06:36:50.134Z,78.89
2019-02-20T06:39:18.630Z,78.78
2019-02-20T06:41:47.093Z,78.98
2019-02-20T06:44:15.561Z,79.14
2019-02-20T06:46:44.048Z,79.32
2019-02-20T06:49:12.502Z,79.49
2019-02-20T06:51:41.660Z,79.58
2019-02-20T06:54:10.205Z,79.41
2019-02-20T06:56:38.666Z,79.63
2019-02-20T06:59:07.315Z,79.46
2019-02-20T07:01:35.793Z,79.72
2019-02-20T07:04:04.344Z,79.42
2019-02-20T07:06:35.852Z,79.32
2019-02-20T07:09:22.285Z,79.57
2019-02-20T07:12:17.366Z,79.42
2019-02-20T07:15:09.885Z,79.36
2019-02-20T07:18:05.293Z,79.18
2019-02-20T07:20:40.459Z,79.48
2019-02-20T07:23:32.660Z,79.54
2019-02-20T07:26:28.600Z,79.45
2019-02-20T07:29:33.814Z,79.35
2019-02-20T07:32:02.278Z,79.09
2019-02-20T07:34:32.302Z,79.21
2019-02-20T07:37:00.774Z,79.50
2019-02-20T07:39:29.242Z,79.46
2019-02-20T07:42:00.894Z,79.25
2019-02-20T07:44:29.351Z,79.17
2019-02-20T07:46:57.918Z,79.18
2019-02-20T07:49:26.406Z,79.22
2019-02-20T07:51:54.904Z,79.38
2019-02-20T07:54:24.314Z,79.57
2019-02-20T07:56:52.897Z,79.54
2019-02-20T07:59:21.486Z,79.47
2019-02-20T08:01:50.066Z,79.37
2019-02-20T08:04:19.234Z,79.44
2019-02-20T08:06:47.732Z,79.38
2019-02-20T08:09:16.237Z,79.03
2019-02-20T08:11:44.826Z,79.14
2019-02-20T08:14:13.287Z,79.03
2019-02-20T08:16:41.774Z,78.96
2019-02-20T08:19:10.246Z,78.82
2019-02-20T08:21:40.904Z,78.92
2019-02-20T08:24:09.355Z,78.79
2019-02-20T08:26:37.839Z,78.63
2019-02-20T08:29:06.391Z,78.48
2019-02-20T08:31:34.973Z,78.70
2019-02-20T08:34:03.432Z,78.46
2019-02-20T08:36:34.248Z,78.51
2019-02-20T08:39:04.380Z,78.14
2019-02-20T08:41:32.948Z,77.96
2019-02-20T08:44:01.426Z,77.96
2019-02-20T08:46:29.887Z,77.76
2019-02-20T08:48:58.439Z,77.72
2019-02-20T08:51:27.013Z,77.37
2019-02-20T08:53:55.509Z,77.27
2019-02-20T08:56:23.994Z,76.74
2019-02-20T08:58:52.457Z,76.52
2019-02-20T09:01:20.931Z,76.44
2019-02-20T09:03:49.428Z,75.48
2019-02-20T09:06:17.897Z,75.67
2019-02-20T09:08:46.459Z,75.69
2019-02-20T09:11:14.928Z,75.05
2019-02-20T09:13:43.408Z,74.91
2019-02-20T09:16:11.890Z,74.26
2019-02-20T09:18:40.367Z,74.88
2019-02-20T09:21:08.846Z,75.23
2019-02-20T09:23:37.386Z,75.57
2019-02-20T09:26:05.862Z,75.55
2019-02-20T09:28:34.365Z,75.56
2019-02-20T09:31:02.907Z,75.04
2019-02-20T09:33:31.439Z,75.12
2019-02-20T09:35:59.918Z,75.33
2019-02-20T09:39:28.966Z,74.70
2019-02-20T09:41:57.519Z,74.97
2019-02-20T09:44:25.999Z,74.84
2019-02-20T09:46:54.475Z,74.87
2019-02-20T09:49:22.955Z,74.96
2019-02-20T09:51:51.621Z,74.45
2019-02-20T09:54:20.078Z,74.90
2019-02-20T09:56:48.548Z,74.70
2019-02-20T09:59:17.064Z,74.58
2019-02-20T10:01:45.537Z,74.16
2019-02-20T10:04:14.017Z,74.99
2019-02-20T10:06:42.506Z,74.41
2019-02-20T10:09:10.971Z,74.12
2019-02-20T10:11:39.455Z,74.12
2019-02-20T10:14:07.987Z,74.22
2019-02-20T10:16:36.461Z,74.05
2019-02-20T10:19:05.035Z,74.14
2019-02-20T10:21:33.533Z,74.08
2019-02-20T10:24:02.007Z,73.98
2019-02-20T10:26:30.487Z,73.68
2019-02-20T10:28:58.959Z,73.89
2019-02-20T10:31:27.525Z,73.60
2019-02-20T10:33:56.273Z,73.63
2019-02-20T10:36:24.811Z,73.37
2019-02-20T10:38:53.289Z,72.92
2019-02-20T10:41:22.418Z,72.86
2019-02-20T10:43:50.927Z,73.07
2019-02-20T10:46:19.403Z,72.77
2019-02-20T10:48:47.888Z,72.77
2019-02-20T10:51:16.438Z,72.15
2019-02-20T10:53:44.922Z,72.20
2019-02-20T10:56:13.407Z,72.02
2019-02-20T10:58:41.884Z,72.05
2019-02-20T11:01:11.908Z,72.39
2019-02-20T11:03:40.466Z,72.07
2019-02-20T11:06:09.062Z,71.73
2019-02-20T11:08:37.560Z,71.78
2019-02-20T11:11:06.042Z,71.76
2019-02-20T11:13:34.525Z,71.09
2019-02-20T11:16:03.002Z,71.14
2019-02-20T11:18:31.494Z,71.32
2019-02-20T11:21:00.036Z,70.89
2019-02-20T11:23:28.527Z,69.93
2019-02-20T11:25:56.990Z,69.15
2019-02-20T11:28:27.172Z,69.29
2019-02-20T11:30:56.894Z,69.78
2019-02-20T11:33:25.340Z,70.19
2019-02-20T11:35:53.815Z,70.28
2019-02-20T11:38:22.346Z,69.69
2019-02-20T11:40:50.830Z,69.66
2019-02-20T11:43:21.181Z,69.00
2019-02-20T11:45:49.590Z,68.83
2019-02-20T11:49:09.600Z,67.99
2019-02-20T11:51:37.544Z,69.03
2019-02-20T11:54:06.029Z,67.82
2019-02-20T11:56:34.508Z,68.39
2019-02-20T11:59:02.974Z,68.00
2019-02-20T12:01:31.468Z,68.81
2019-02-20T12:03:59.945Z,68.37
2019-02-20T12:06:28.483Z,68.53
2019-02-20T12:08:56.942Z,68.37
2019-02-20T12:11:25.490Z,67.93
2019-02-20T12:13:53.965Z,68.23
2019-02-20T12:16:22.695Z,67.97
2019-02-20T12:18:51.235Z,68.51
2019-02-20T12:21:19.881Z,67.88
2019-02-20T12:23:48.352Z,67.84
2019-02-20T12:26:16.826Z,67.79
2019-02-20T12:28:47.189Z,67.66
2019-02-20T12:31:15.612Z,67.69
2019-02-20T12:33:44.071Z,67.50
2019-02-20T12:36:12.608Z,67.27
2019-02-20T12:38:41.236Z,67.41
2019-02-20T12:41:10.937Z,66.78
2019-02-20T12:43:39.679Z,67.08
2019-02-20T12:46:08.263Z,67.04
2019-02-20T12:48:36.755Z,66.95
2019-02-20T12:51:05.368Z,66.87
2019-02-20T12:53:33.852Z,66.14
2019-02-20T12:56:09.839Z,66.79
2019-02-20T12:58:32.725Z,66.77
2019-02-20T13:01:01.276Z,65.64
2019-02-20T13:03:29.833Z,65.88
2019-02-20T13:05:58.403Z,65.97
2019-02-20T13:08:26.903Z,65.71
2019-02-20T13:10:58.252Z,65.81
2019-02-20T13:13:26.820Z,66.01
2019-02-20T13:15:55.308Z,66.57
2019-02-20T13:18:23.919Z,66.43
2019-02-20T13:20:52.401Z,66.50
2019-02-20T13:23:20.875Z,66.30
2019-02-20T13:25:49.382Z,66.53
2019-02-20T13:28:17.859Z,65.63
2019-02-20T13:30:46.425Z,66.38
2019-02-20T13:33:14.879Z,65.81
2019-02-20T13:35:43.388Z,65.90
2019-02-20T13:38:11.851Z,65.20
2019-02-20T13:40:40.347Z,65.65
2019-02-20T13:43:08.902Z,65.74
2019-02-20T13:45:37.597Z,65.47
2019-02-20T13:51:47.079Z,65.70
2019-02-20T13:54:15.613Z,65.25
2019-02-20T13:56:44.178Z,65.25
2019-02-20T13:59:15.667Z,64.69
2019-02-20T14:01:45.634Z,65.41
2019-02-20T14:04:14.463Z,64.83
2019-02-20T14:06:42.942Z,64.65
2019-02-20T14:09:11.471Z,65.09
2019-02-20T14:11:40.041Z,65.13
2019-02-20T14:14:09.074Z,65.15
2019-02-20T14:16:37.661Z,65.38
2019-02-20T14:19:06.239Z,65.02
2019-02-20T14:21:34.908Z,65.47
2019-02-20T14:24:03.380Z,64.93
2019-02-20T14:26:31.852Z,64.71
2019-02-20T14:29:00.340Z,64.94
2019-02-20T14:31:28.897Z,65.04
2019-02-20T14:33:57.377Z,65.11
2019-02-20T14:36:25.848Z,64.82
2019-02-20T14:38:54.422Z,65.20
2019-02-20T14:41:22.921Z,65.45
2019-02-20T14:43:51.406Z,65.08
2019-02-20T14:46:19.952Z,64.28
2019-02-20T14:48:48.457Z,64.98
2019-02-20T14:51:16.935Z,65.07
2019-02-20T14:53:45.790Z,64.47
2019-02-20T14:56:14.303Z,64.06
2019-02-20T14:58:42.794Z,64.34
2019-02-20T15:01:13.105Z,64.65
2019-02-20T15:03:41.706Z,64.78
2019-02-20T15:06:10.247Z,64.86
2019-02-20T15:08:38.747Z,65.24
2019-02-20T15:11:07.479Z,64.71
2019-02-20T15:13:35.990Z,65.16
2019-02-20T15:16:04.610Z,65.32
2019-02-20T15:18:33.151Z,65.29
2019-02-20T15:21:02.781Z,65.56
2019-02-20T15:23:31.436Z,65.22
2019-02-20T15:26:00.270Z,65.38
2019-02-20T15:28:28.875Z,65.36
2019-02-20T15:30:57.372Z,64.88
2019-02-20T15:33:26.116Z,65.02
2019-02-20T15:35:54.599Z,65.17
2019-02-20T15:38:23.142Z,64.97
2019-02-20T15:40:51.653Z,65.30
2019-02-20T15:43:20.455Z,65.40
2019-02-20T15:45:48.943Z,65.79
2019-02-20T15:48:23.072Z,65.99
2019-02-20T15:50:47.692Z,65.86
2019-02-20T15:53:16.173Z,66.05
2019-02-20T15:55:44.834Z,66.06
2019-02-20T15:58:13.331Z,66.29
2019-02-20T16:00:41.818Z,66.45
2019-02-20T16:03:10.378Z,66.90
2019-02-20T16:05:38.928Z,66.77
2019-02-20T16:08:07.561Z,67.16
2019-02-20T16:10:36.102Z,67.22
2019-02-20T16:13:04.719Z,67.45
2019-02-20T16:15:34.343Z,67.34
2019-02-20T16:18:02.898Z,67.45
2019-02-20T16:20:31.450Z,67.34
2019-02-20T16:22:59.940Z,67.86
2019-02-20T16:25:28.485Z,67.54
2019-02-20T16:27:56.970Z,68.18
2019-02-20T16:30:25.605Z,67.69
2019-02-20T16:32:55.188Z,68.26
2019-02-20T16:35:23.847Z,67.88
2019-02-20T16:37:52.352Z,68.50
2019-02-20T16:40:21.013Z,68.28
2019-02-20T16:42:49.543Z,68.19
2019-02-20T16:45:21.113Z,69.24
2019-02-20T16:47:49.941Z,68.00
2019-02-20T16:50:18.603Z,68.57
2019-02-20T16:52:47.272Z,68.08
2019-02-20T16:55:19.673Z,68.21
2019-02-20T16:57:56.377Z,68.34
2019-02-20T17:00:21.643Z,68.17
2019-02-20T17:02:50.553Z,68.03
2019-02-20T17:05:19.215Z,68.15
2019-02-20T17:07:47.797Z,68.17
2019-02-20T17:10:16.529Z,67.51
2019-02-20T17:12:45.091Z,67.89
2019-02-20T17:15:15.388Z,67.07
2019-02-20T17:17:43.998Z,67.33
2019-02-20T17:20:15.123Z,67.47
2019-02-20T17:22:43.745Z,67.68
2019-02-20T17:25:13.346Z,67.45
2019-02-20T17:27:41.884Z,67.20
2019-02-20T17:30:13.499Z,67.17
2019-02-20T17:32:44.003Z,67.19
2019-02-20T17:35:14.605Z,67.05
2019-02-20T17:37:43.699Z,66.97
2019-02-20T17:40:13.972Z,66.86
2019-02-20T17:42:42.703Z,66.39
2019-02-20T17:45:14.119Z,66.62
2019-02-20T17:47:43.103Z,66.57
2019-02-20T17:50:39.318Z,66.52
2019-02-20T17:53:07.772Z,66.75
2019-02-20T17:55:37.781Z,66.79
2019-02-20T17:58:14.539Z,66.92
2019-02-20T18:00:37.033Z,67.45
2019-02-20T18:03:05.742Z,66.61
2019-02-20T18:05:34.202Z,66.57
2019-02-20T18:08:02.736Z,65.99
2019-02-20T18:10:31.202Z,66.26
2019-02-20T18:12:59.853Z,66.25
2019-02-20T18:15:30.963Z,65.94
2019-02-20T18:18:03.355Z,66.02
2019-02-20T18:20:31.955Z,65.90
2019-02-20T18:23:01.747Z,65.18
2019-02-20T18:25:33.067Z,65.41
2019-02-20T18:31:26.759Z,65.13
2019-02-20T18:33:58.191Z,65.29
2019-02-20T18:36:28.197Z,65.14
2019-02-20T18:38:58.354Z,65.29
2019-02-20T18:41:26.947Z,65.43
2019-02-20T18:43:55.463Z,65.48
2019-02-20T18:46:23.929Z,65.91
2019-02-20T18:48:52.543Z,66.24
2019-02-20T18:51:21.097Z,66.61
2019-02-20T18:53:49.585Z,66.95
2019-02-20T18:56:18.148Z,67.17
2019-02-20T18:58:47.748Z,67.44
2019-02-20T19:01:16.178Z,67.89
2019-02-20T19:03:44.690Z,67.90
2019-02-20T19:06:13.240Z,67.65
2019-02-20T19:08:47.116Z,68.21
2019-02-20T19:11:33.875Z,67.62
2019-02-20T19:14:24.379Z,66.60
2019-02-20T19:17:17.222Z,67.12
2019-02-20T19:20:10.362Z,67.77
2019-02-20T19:22:49.432Z,67.19
2019-02-20T19:25:37.549Z,67.13
2019-02-20T19:28:20.929Z,67.04
2019-02-20T19:31:14.551Z,67.02
2019-02-20T19:34:00.998Z,66.60
2019-02-20T19:37:02.408Z,66.64
2019-02-20T19:39:39.753Z,66.36
2019-02-20T19:45:45.016Z,66.40
2019-02-20T19:48:44.523Z,66.54
2019-02-20T19:51:30.434Z,66.50
2019-02-20T19:54:18.183Z,66.48
2019-02-20T19:57:04.429Z,66.16
2019-02-20T19:59:55.633Z,66.60
2019-02-20T20:02:38.776Z,66.40
2019-02-20T20:05:16.512Z,66.21
2019-02-20T20:08:06.217Z,66.36
2019-02-20T20:11:09.528Z,67.16
2019-02-20T20:13:46.775Z,66.72
2019-02-20T20:16:26.513Z,66.42
2019-02-20T20:19:04.039Z,66.37
2019-02-20T20:21:59.495Z,66.55
2019-02-20T20:24:40.648Z,66.55
2019-02-20T20:27:21.347Z,65.94
2019-02-20T20:30:09.706Z,66.29
2019-02-20T20:33:02.311Z,66.39
2019-02-20T20:36:08.637Z,66.49
2019-02-20T20:38:46.183Z,66.85
2019-02-20T20:41:20.494Z,66.48
2019-02-20T20:44:27.650Z,66.40
2019-02-20T20:46:59.338Z,66.48
2019-02-20T20:49:33.749Z,66.64
2019-02-20T20:52:23.404Z,66.37
2019-02-20T20:54:54.954Z,66.35
2019-02-20T20:57:29.297Z,66.40
2019-02-20T21:00:15.684Z,66.86
2019-02-20T21:02:47.433Z,66.55
2019-02-20T21:05:21.793Z,66.32
2019-02-20T21:08:02.340Z,66.84
2019-02-20T21:10:51.547Z,66.59
2019-02-20T21:13:23.073Z,66.79
2019-02-20T21:16:15.097Z,66.28
2019-02-20T21:19:01.722Z,66.35
2019-02-20T21:21:48.110Z,66.27
2019-02-20T21:24:22.668Z,66.34
2019-02-20T21:26:57.095Z,66.31
2019-02-20T21:29:37.785Z,66.86
2019-02-20T21:32:32.206Z,66.74
2019-02-20T21:35:09.610Z,66.70
2019-02-20T21:37:56.044Z,66.46
2019-02-20T21:40:33.039Z,66.43
2019-02-20T21:43:30.149Z,66.69
2019-02-20T21:46:16.587Z,66.55
2019-02-20T21:49:04.718Z,66.80
2019-02-20T21:51:38.744Z,66.64
2019-02-20T21:54:27.398Z,66.52
2019-02-20T21:57:16.910Z,66.35
2019-02-20T21:59:54.218Z,66.58
2019-02-20T22:02:25.823Z,66.70
2019-02-20T22:05:18.557Z,66.52
2019-02-20T22:08:05.384Z,66.79
2019-02-20T22:10:45.667Z,66.87
2019-02-20T22:13:32.257Z,67.25
2019-02-20T22:16:15.835Z,66.61
2019-02-20T22:19:05.558Z,66.81
2019-02-20T22:21:56.617Z,66.43
2019-02-20T22:24:50.007Z,66.61
2019-02-20T22:27:33.736Z,66.94
2019-02-20T22:30:14.108Z,66.81
2019-02-20T22:32:45.814Z,66.82
2019-02-20T22:35:29.430Z,66.94
2019-02-20T22:38:43.978Z,67.00
2019-02-20T22:41:24.502Z,66.74
2019-02-20T22:44:10.796Z,67.15
2019-02-20T22:47:05.644Z,67.07
2019-02-20T22:49:43.261Z,66.83
2019-02-20T22:52:14.818Z,66.70
2019-02-20T22:54:55.140Z,67.18
2019-02-20T22:57:51.554Z,66.89
2019-02-20T23:00:56.096Z,67.37
2019-02-20T23:03:39.541Z,66.95
2019-02-20T23:06:33.696Z,67.19
2019-02-20T23:09:31.807Z,67.36
2019-02-20T23:12:37.167Z,67.05
2019-02-20T23:15:07.435Z,67.34
2019-02-20T23:17:35.907Z,67.42
2019-02-20T23:20:06.180Z,66.93
2019-02-20T23:22:34.722Z,67.48
2019-02-20T23:25:03.339Z,67.78
2019-02-20T23:27:31.802Z,67.17
2019-02-20T23:30:00.444Z,67.59
2019-02-20T23:32:28.920Z,67.47
2019-02-20T23:34:57.431Z,67.64
2019-02-20T23:37:25.943Z,67.57
2019-02-20T23:39:54.451Z,67.38
2019-02-20T23:42:22.917Z,67.29
2019-02-20T23:44:51.409Z,67.40
2019-02-20T23:47:19.927Z,67.33
2019-02-20T23:49:48.427Z,68.24
2019-02-20T23:52:16.968Z,68.30
2019-02-20T23:54:45.451Z,68.52
2019-02-20T23:57:14.026Z,68.70
2019-02-20T23:59:42.556Z,69.26
